sensor_id;sensor_type;location;lat;lon;timestamp;temperature;humidity
22108;DHT22;11220;48.812;9.128;2023-05-16T00:01:47;19.20;87.20
22108;DHT22;11220;48.812;9.128;2023-05-16T00:04:12;19.20;87.20
22108;DHT22;11220;48.812;9.128;2023-05-16T00:06:38;19.20;87.30
22108;DHT22;11220;48.812;9.128;2023-05-16T00:09:03;19.20;87.30
22108;DHT22;11220;48.812;9.128;2023-05-16T00:11:29;19.20;87.30
22108;DHT22;11220;48.812;9.128;2023-05-16T00:13:54;19.20;87.30
22108;DHT22;11220;48.812;9.128;2023-05-16T00:16:20;19.20;87.30
22108;DHT22;11220;48.812;9.128;2023-05-16T00:18:46;19.50;87.50
22108;DHT22;11220;48.812;9.128;2023-05-16T00:21:12;19.20;87.30
22108;DHT22;11220;48.812;9.128;2023-05-16T00:23:38;19.20;87.40
22108;DHT22;11220;48.812;9.128;2023-05-16T00:26:04;19.10;87.30
22108;DHT22;11220;48.812;9.128;2023-05-16T00:28:29;19.20;87.40
22108;DHT22;11220;48.812;9.128;2023-05-16T00:30:55;19.10;87.30
22108;DHT22;11220;48.812;9.128;2023-05-16T00:33:20;19.20;87.40
22108;DHT22;11220;48.812;9.128;2023-05-16T00:35:46;19.20;87.40
22108;DHT22;11220;48.812;9.128;2023-05-16T00:38:11;19.20;87.40
22108;DHT22;11220;48.812;9.128;2023-05-16T00:40:37;19.10;87.40
22108;DHT22;11220;48.812;9.128;2023-05-16T00:43:03;19.10;87.40
22108;DHT22;11220;48.812;9.128;2023-05-16T00:45:28;19.10;87.40
22108;DHT22;11220;48.812;9.128;2023-05-16T00:47:54;19.10;87.40
22108;DHT22;11220;48.812;9.128;2023-05-16T00:50:20;19.10;87.40
22108;DHT22;11220;48.812;9.128;2023-05-16T00:52:46;19.10;87.40
22108;DHT22;11220;48.812;9.128;2023-05-16T00:55:12;19.10;87.50
22108;DHT22;11220;48.812;9.128;2023-05-16T00:57:38;19.10;87.50
22108;DHT22;11220;48.812;9.128;2023-05-16T01:00:07;19.10;87.50
22108;DHT22;11220;48.812;9.128;2023-05-16T01:02:35;19.10;87.50
22108;DHT22;11220;48.812;9.128;2023-05-16T01:05:02;19.10;87.50
22108;DHT22;11220;48.812;9.128;2023-05-16T01:07:30;19.10;87.50
22108;DHT22;11220;48.812;9.128;2023-05-16T01:09:55;19.10;87.60
22108;DHT22;11220;48.812;9.128;2023-05-16T01:15:21;19.10;87.60
22108;DHT22;11220;48.812;9.128;2023-05-16T01:18:05;19.10;87.50
22108;DHT22;11220;48.812;9.128;2023-05-16T01:20:50;19.10;87.60
22108;DHT22;11220;48.812;9.128;2023-05-16T01:28:43;19.00;87.50
22108;DHT22;11220;48.812;9.128;2023-05-16T01:31:09;19.00;87.50
22108;DHT22;11220;48.812;9.128;2023-05-16T01:33:35;19.00;87.50
22108;DHT22;11220;48.812;9.128;2023-05-16T01:36:25;19.00;87.60
22108;DHT22;11220;48.812;9.128;2023-05-16T01:44:31;19.00;87.60
22108;DHT22;11220;48.812;9.128;2023-05-16T01:47:00;19.00;87.60
22108;DHT22;11220;48.812;9.128;2023-05-16T01:49:35;19.00;87.60
22108;DHT22;11220;48.812;9.128;2023-05-16T01:52:17;19.00;87.60
22108;DHT22;11220;48.812;9.128;2023-05-16T01:54:45;19.00;87.60
22108;DHT22;11220;48.812;9.128;2023-05-16T01:57:12;19.00;87.70
22108;DHT22;11220;48.812;9.128;2023-05-16T01:59:39;19.00;87.70
22108;DHT22;11220;48.812;9.128;2023-05-16T02:02:05;19.00;87.70
22108;DHT22;11220;48.812;9.128;2023-05-16T02:04:31;19.00;87.70
22108;DHT22;11220;48.812;9.128;2023-05-16T02:06:56;19.00;87.70
22108;DHT22;11220;48.812;9.128;2023-05-16T02:09:24;19.00;87.80
22108;DHT22;11220;48.812;9.128;2023-05-16T02:11:50;19.90;88.40
22108;DHT22;11220;48.812;9.128;2023-05-16T02:14:15;19.00;87.80
22108;DHT22;11220;48.812;9.128;2023-05-16T02:16:41;18.90;87.70
22108;DHT22;11220;48.812;9.128;2023-05-16T02:19:06;18.90;87.70
22108;DHT22;11220;48.812;9.128;2023-05-16T02:21:32;19.00;87.80
22108;DHT22;11220;48.812;9.128;2023-05-16T02:23:57;19.00;87.80
22108;DHT22;11220;48.812;9.128;2023-05-16T02:26:23;18.90;87.80
22108;DHT22;11220;48.812;9.128;2023-05-16T02:28:48;18.90;87.80
22108;DHT22;11220;48.812;9.128;2023-05-16T02:31:30;18.90;87.80
22108;DHT22;11220;48.812;9.128;2023-05-16T02:33:57;18.90;87.80
22108;DHT22;11220;48.812;9.128;2023-05-16T02:36:23;18.90;87.80
22108;DHT22;11220;48.812;9.128;2023-05-16T02:38:49;18.90;87.80
22108;DHT22;11220;48.812;9.128;2023-05-16T02:41:14;20.50;88.80
22108;DHT22;11220;48.812;9.128;2023-05-16T02:43:40;18.90;87.80
22108;DHT22;11220;48.812;9.128;2023-05-16T02:46:24;18.90;87.90
22108;DHT22;11220;48.812;9.128;2023-05-16T02:48:50;18.90;87.80
22108;DHT22;11220;48.812;9.128;2023-05-16T02:51:16;18.90;87.80
22108;DHT22;11220;48.812;9.128;2023-05-16T02:53:42;18.90;87.80
22108;DHT22;11220;48.812;9.128;2023-05-16T02:56:07;18.90;87.90
22108;DHT22;11220;48.812;9.128;2023-05-16T02:58:34;18.90;87.90
22108;DHT22;11220;48.812;9.128;2023-05-16T03:01:00;18.90;87.90
22108;DHT22;11220;48.812;9.128;2023-05-16T03:03:25;18.90;87.90
22108;DHT22;11220;48.812;9.128;2023-05-16T03:05:51;18.90;87.90
22108;DHT22;11220;48.812;9.128;2023-05-16T03:08:17;18.90;87.90
22108;DHT22;11220;48.812;9.128;2023-05-16T03:10:43;18.90;87.90
22108;DHT22;11220;48.812;9.128;2023-05-16T03:13:08;18.90;87.90
22108;DHT22;11220;48.812;9.128;2023-05-16T03:15:34;18.90;87.90
22108;DHT22;11220;48.812;9.128;2023-05-16T03:17:59;18.90;87.90
22108;DHT22;11220;48.812;9.128;2023-05-16T03:20:25;18.90;88.00
22108;DHT22;11220;48.812;9.128;2023-05-16T03:22:51;18.80;87.90
22108;DHT22;11220;48.812;9.128;2023-05-16T03:25:16;18.90;87.90
22108;DHT22;11220;48.812;9.128;2023-05-16T03:27:41;18.80;87.90
22108;DHT22;11220;48.812;9.128;2023-05-16T03:30:08;18.80;87.90
22108;DHT22;11220;48.812;9.128;2023-05-16T03:32:33;18.80;87.90
22108;DHT22;11220;48.812;9.128;2023-05-16T03:34:59;19.10;88.10
22108;DHT22;11220;48.812;9.128;2023-05-16T03:37:24;18.80;87.90
22108;DHT22;11220;48.812;9.128;2023-05-16T03:39:50;18.80;87.90
22108;DHT22;11220;48.812;9.128;2023-05-16T03:42:16;19.90;88.60
22108;DHT22;11220;48.812;9.128;2023-05-16T03:44:42;18.80;88.00
22108;DHT22;11220;48.812;9.128;2023-05-16T03:47:08;18.80;88.00
22108;DHT22;11220;48.812;9.128;2023-05-16T03:49:34;18.80;88.00
22108;DHT22;11220;48.812;9.128;2023-05-16T03:52:01;18.80;88.00
22108;DHT22;11220;48.812;9.128;2023-05-16T03:54:27;19.40;88.30
22108;DHT22;11220;48.812;9.128;2023-05-16T03:56:52;18.80;88.00
22108;DHT22;11220;48.812;9.128;2023-05-16T03:59:18;18.80;88.00
22108;DHT22;11220;48.812;9.128;2023-05-16T04:01:44;18.80;88.00
22108;DHT22;11220;48.812;9.128;2023-05-16T04:04:09;18.80;88.00
22108;DHT22;11220;48.812;9.128;2023-05-16T04:06:35;18.80;88.00
22108;DHT22;11220;48.812;9.128;2023-05-16T04:09:00;18.80;88.00
22108;DHT22;11220;48.812;9.128;2023-05-16T04:11:26;18.80;88.00
22108;DHT22;11220;48.812;9.128;2023-05-16T04:13:51;18.80;88.00
22108;DHT22;11220;48.812;9.128;2023-05-16T04:16:18;18.80;88.00
22108;DHT22;11220;48.812;9.128;2023-05-16T04:18:43;18.80;88.00
22108;DHT22;11220;48.812;9.128;2023-05-16T04:21:09;18.70;88.00
22108;DHT22;11220;48.812;9.128;2023-05-16T04:23:39;18.80;88.10
22108;DHT22;11220;48.812;9.128;2023-05-16T04:26:05;19.60;88.50
22108;DHT22;11220;48.812;9.128;2023-05-16T04:28:30;18.80;88.00
22108;DHT22;11220;48.812;9.128;2023-05-16T04:30:56;18.80;88.00
22108;DHT22;11220;48.812;9.128;2023-05-16T04:33:22;18.70;88.00
22108;DHT22;11220;48.812;9.128;2023-05-16T04:35:47;18.70;88.00
22108;DHT22;11220;48.812;9.128;2023-05-16T04:38:14;18.80;88.00
22108;DHT22;11220;48.812;9.128;2023-05-16T04:40:40;18.80;88.00
22108;DHT22;11220;48.812;9.128;2023-05-16T04:43:08;18.70;87.90
22108;DHT22;11220;48.812;9.128;2023-05-16T04:45:33;18.80;88.10
22108;DHT22;11220;48.812;9.128;2023-05-16T04:48:00;18.70;87.90
22108;DHT22;11220;48.812;9.128;2023-05-16T04:50:25;18.70;87.90
22108;DHT22;11220;48.812;9.128;2023-05-16T04:52:51;18.80;88.00
22108;DHT22;11220;48.812;9.128;2023-05-16T04:55:16;18.70;87.90
22108;DHT22;11220;48.812;9.128;2023-05-16T04:57:42;18.70;87.90
22108;DHT22;11220;48.812;9.128;2023-05-16T05:00:08;18.70;87.90
22108;DHT22;11220;48.812;9.128;2023-05-16T05:02:36;18.80;88.10
22108;DHT22;11220;48.812;9.128;2023-05-16T05:05:03;18.70;87.90
22108;DHT22;11220;48.812;9.128;2023-05-16T05:07:29;18.70;87.90
22108;DHT22;11220;48.812;9.128;2023-05-16T05:09:55;18.80;88.10
22108;DHT22;11220;48.812;9.128;2023-05-16T05:12:21;18.80;88.10
22108;DHT22;11220;48.812;9.128;2023-05-16T05:14:47;18.80;88.00
22108;DHT22;11220;48.812;9.128;2023-05-16T05:17:12;18.70;87.90
22108;DHT22;11220;48.812;9.128;2023-05-16T05:19:38;18.70;87.90
22108;DHT22;11220;48.812;9.128;2023-05-16T05:22:03;18.70;87.90
22108;DHT22;11220;48.812;9.128;2023-05-16T05:24:29;18.80;88.00
22108;DHT22;11220;48.812;9.128;2023-05-16T05:26:54;18.70;88.00
22108;DHT22;11220;48.812;9.128;2023-05-16T05:29:20;18.70;87.90
22108;DHT22;11220;48.812;9.128;2023-05-16T05:31:46;18.70;88.00
22108;DHT22;11220;48.812;9.128;2023-05-16T05:34:12;18.70;88.00
22108;DHT22;11220;48.812;9.128;2023-05-16T05:36:37;18.70;88.00
22108;DHT22;11220;48.812;9.128;2023-05-16T05:39:03;18.80;88.10
22108;DHT22;11220;48.812;9.128;2023-05-16T05:41:28;18.80;88.00
22108;DHT22;11220;48.812;9.128;2023-05-16T05:43:54;18.70;87.90
22108;DHT22;11220;48.812;9.128;2023-05-16T05:46:20;18.70;88.00
22108;DHT22;11220;48.812;9.128;2023-05-16T05:48:45;18.70;88.00
22108;DHT22;11220;48.812;9.128;2023-05-16T05:51:11;18.70;88.00
22108;DHT22;11220;48.812;9.128;2023-05-16T05:53:39;18.70;88.00
22108;DHT22;11220;48.812;9.128;2023-05-16T05:56:04;18.70;87.90
22108;DHT22;11220;48.812;9.128;2023-05-16T05:58:30;18.70;88.00
22108;DHT22;11220;48.812;9.128;2023-05-16T06:00:56;18.70;88.00
22108;DHT22;11220;48.812;9.128;2023-05-16T06:03:21;18.70;87.90
22108;DHT22;11220;48.812;9.128;2023-05-16T06:05:47;18.70;87.90
22108;DHT22;11220;48.812;9.128;2023-05-16T06:08:13;18.70;87.90
22108;DHT22;11220;48.812;9.128;2023-05-16T06:10:38;18.80;88.00
22108;DHT22;11220;48.812;9.128;2023-05-16T06:13:04;18.70;88.00
22108;DHT22;11220;48.812;9.128;2023-05-16T06:15:29;18.80;88.00
22108;DHT22;11220;48.812;9.128;2023-05-16T06:17:55;18.80;88.00
22108;DHT22;11220;48.812;9.128;2023-05-16T06:20:21;18.70;87.90
22108;DHT22;11220;48.812;9.128;2023-05-16T06:22:47;18.80;88.00
22108;DHT22;11220;48.812;9.128;2023-05-16T06:25:12;18.80;88.00
22108;DHT22;11220;48.812;9.128;2023-05-16T06:27:38;18.70;87.90
22108;DHT22;11220;48.812;9.128;2023-05-16T06:30:03;18.70;87.90
22108;DHT22;11220;48.812;9.128;2023-05-16T06:32:29;18.80;88.00
22108;DHT22;11220;48.812;9.128;2023-05-16T06:34:55;18.80;88.00
22108;DHT22;11220;48.812;9.128;2023-05-16T06:37:20;18.80;88.00
22108;DHT22;11220;48.812;9.128;2023-05-16T06:39:47;18.70;87.90
22108;DHT22;11220;48.812;9.128;2023-05-16T06:42:13;18.80;88.00
22108;DHT22;11220;48.812;9.128;2023-05-16T06:44:38;18.70;87.90
22108;DHT22;11220;48.812;9.128;2023-05-16T06:47:04;18.70;87.80
22108;DHT22;11220;48.812;9.128;2023-05-16T06:49:30;18.80;87.90
22108;DHT22;11220;48.812;9.128;2023-05-16T06:51:55;18.70;87.80
22108;DHT22;11220;48.812;9.128;2023-05-16T06:54:21;18.70;87.80
22108;DHT22;11220;48.812;9.128;2023-05-16T06:56:46;18.70;87.80
22108;DHT22;11220;48.812;9.128;2023-05-16T06:59:12;18.70;87.80
22108;DHT22;11220;48.812;9.128;2023-05-16T07:01:37;18.80;87.80
22108;DHT22;11220;48.812;9.128;2023-05-16T07:04:03;18.80;87.80
22108;DHT22;11220;48.812;9.128;2023-05-16T07:06:28;18.70;87.80
22108;DHT22;11220;48.812;9.128;2023-05-16T07:08:54;18.80;87.90
22108;DHT22;11220;48.812;9.128;2023-05-16T07:11:20;18.80;87.90
22108;DHT22;11220;48.812;9.128;2023-05-16T07:13:45;18.70;87.80
22108;DHT22;11220;48.812;9.128;2023-05-16T07:16:11;18.80;87.90
22108;DHT22;11220;48.812;9.128;2023-05-16T07:18:37;18.70;87.90
22108;DHT22;11220;48.812;9.128;2023-05-16T07:21:02;19.60;88.40
22108;DHT22;11220;48.812;9.128;2023-05-16T07:23:28;18.70;87.90
22108;DHT22;11220;48.812;9.128;2023-05-16T07:25:54;18.70;87.90
22108;DHT22;11220;48.812;9.128;2023-05-16T07:28:19;18.70;87.90
22108;DHT22;11220;48.812;9.128;2023-05-16T07:30:46;18.80;88.00
22108;DHT22;11220;48.812;9.128;2023-05-16T07:33:11;18.70;88.00
22108;DHT22;11220;48.812;9.128;2023-05-16T07:35:37;18.70;88.00
22108;DHT22;11220;48.812;9.128;2023-05-16T07:38:04;18.70;88.10
22108;DHT22;11220;48.812;9.128;2023-05-16T07:40:30;18.70;88.10
22108;DHT22;11220;48.812;9.128;2023-05-16T07:42:55;18.80;88.20
22108;DHT22;11220;48.812;9.128;2023-05-16T07:45:21;18.80;88.20
22108;DHT22;11220;48.812;9.128;2023-05-16T07:47:46;18.80;88.20
22108;DHT22;11220;48.812;9.128;2023-05-16T07:50:12;18.80;88.20
22108;DHT22;11220;48.812;9.128;2023-05-16T07:52:37;18.80;86.90
22108;DHT22;11220;48.812;9.128;2023-05-16T07:55:03;18.70;86.70
22108;DHT22;11220;48.812;9.128;2023-05-16T07:57:29;18.70;86.90
22108;DHT22;11220;48.812;9.128;2023-05-16T07:59:55;18.70;87.20
22108;DHT22;11220;48.812;9.128;2023-05-16T08:02:23;18.70;87.50
22108;DHT22;11220;48.812;9.128;2023-05-16T08:04:50;18.70;87.70
22108;DHT22;11220;48.812;9.128;2023-05-16T08:07:16;18.70;87.60
22108;DHT22;11220;48.812;9.128;2023-05-16T08:09:42;18.70;87.70
22108;DHT22;11220;48.812;9.128;2023-05-16T08:12:08;18.70;87.90
22108;DHT22;11220;48.812;9.128;2023-05-16T08:14:33;18.80;88.00
22108;DHT22;11220;48.812;9.128;2023-05-16T08:16:59;18.70;88.00
22108;DHT22;11220;48.812;9.128;2023-05-16T08:19:25;18.70;88.00
22108;DHT22;11220;48.812;9.128;2023-05-16T08:21:50;18.80;88.10
22108;DHT22;11220;48.812;9.128;2023-05-16T08:24:16;18.80;88.20
22108;DHT22;11220;48.812;9.128;2023-05-16T08:26:42;18.80;88.10
22108;DHT22;11220;48.812;9.128;2023-05-16T08:29:07;18.80;88.10
22108;DHT22;11220;48.812;9.128;2023-05-16T08:31:33;18.80;88.20
22108;DHT22;11220;48.812;9.128;2023-05-16T08:33:58;18.80;88.20
22108;DHT22;11220;48.812;9.128;2023-05-16T08:36:26;18.80;88.20
22108;DHT22;11220;48.812;9.128;2023-05-16T08:38:52;18.80;88.20
22108;DHT22;11220;48.812;9.128;2023-05-16T08:41:17;18.80;88.20
22108;DHT22;11220;48.812;9.128;2023-05-16T08:43:43;18.80;88.30
22108;DHT22;11220;48.812;9.128;2023-05-16T08:46:08;18.80;88.20
22108;DHT22;11220;48.812;9.128;2023-05-16T08:48:35;18.80;88.30
22108;DHT22;11220;48.812;9.128;2023-05-16T08:51:02;18.80;88.30
22108;DHT22;11220;48.812;9.128;2023-05-16T08:53:35;18.80;88.30
22108;DHT22;11220;48.812;9.128;2023-05-16T08:56:04;18.80;88.40
22108;DHT22;11220;48.812;9.128;2023-05-16T08:58:31;18.80;88.30
22108;DHT22;11220;48.812;9.128;2023-05-16T09:00:57;18.80;88.30
22108;DHT22;11220;48.812;9.128;2023-05-16T09:03:23;18.80;88.30
22108;DHT22;11220;48.812;9.128;2023-05-16T09:05:49;18.80;87.40
22108;DHT22;11220;48.812;9.128;2023-05-16T09:08:15;18.70;87.40
22108;DHT22;11220;48.812;9.128;2023-05-16T09:10:40;18.70;87.50
22108;DHT22;11220;48.812;9.128;2023-05-16T09:13:06;18.70;87.70
22108;DHT22;11220;48.812;9.128;2023-05-16T09:15:32;18.70;87.90
22108;DHT22;11220;48.812;9.128;2023-05-16T09:18:01;18.80;88.10
22108;DHT22;11220;48.812;9.128;2023-05-16T09:20:27;19.80;88.80
22108;DHT22;11220;48.812;9.128;2023-05-16T09:22:57;18.80;88.20
22108;DHT22;11220;48.812;9.128;2023-05-16T09:25:27;18.80;88.30
22108;DHT22;11220;48.812;9.128;2023-05-16T09:27:53;18.80;88.20
22108;DHT22;11220;48.812;9.128;2023-05-16T09:30:26;18.80;88.40
22108;DHT22;11220;48.812;9.128;2023-05-16T09:32:52;18.90;88.40
22108;DHT22;11220;48.812;9.128;2023-05-16T09:35:20;18.90;88.40
22108;DHT22;11220;48.812;9.128;2023-05-16T09:37:50;18.90;88.50
22108;DHT22;11220;48.812;9.128;2023-05-16T09:40:22;18.90;88.50
22108;DHT22;11220;48.812;9.128;2023-05-16T09:43:04;18.90;88.60
22108;DHT22;11220;48.812;9.128;2023-05-16T09:45:30;18.90;88.60
22108;DHT22;11220;48.812;9.128;2023-05-16T09:48:07;18.90;88.60
22108;DHT22;11220;48.812;9.128;2023-05-16T09:50:34;18.90;88.60
22108;DHT22;11220;48.812;9.128;2023-05-16T09:53:01;18.90;88.60
22108;DHT22;11220;48.812;9.128;2023-05-16T09:55:26;18.90;88.60
22108;DHT22;11220;48.812;9.128;2023-05-16T09:57:52;18.90;88.70
22108;DHT22;11220;48.812;9.128;2023-05-16T10:00:18;18.90;88.70
22108;DHT22;11220;48.812;9.128;2023-05-16T10:02:43;18.90;88.70
22108;DHT22;11220;48.812;9.128;2023-05-16T10:05:09;18.90;88.70
22108;DHT22;11220;48.812;9.128;2023-05-16T10:07:36;19.30;89.00
22108;DHT22;11220;48.812;9.128;2023-05-16T10:10:05;18.90;88.70
22108;DHT22;11220;48.812;9.128;2023-05-16T10:12:33;18.90;88.60
22108;DHT22;11220;48.812;9.128;2023-05-16T10:15:00;19.70;89.30
22108;DHT22;11220;48.812;9.128;2023-05-16T10:17:27;19.00;88.70
22108;DHT22;11220;48.812;9.128;2023-05-16T10:19:57;19.00;89.60
22108;DHT22;11220;48.812;9.128;2023-05-16T10:22:23;19.00;88.50
22108;DHT22;11220;48.812;9.128;2023-05-16T10:25:14;19.20;88.70
22108;DHT22;11220;48.812;9.128;2023-05-16T10:27:42;19.00;88.60
22108;DHT22;11220;48.812;9.128;2023-05-16T10:30:09;19.30;88.80
22108;DHT22;11220;48.812;9.128;2023-05-16T10:32:36;19.00;88.50
22108;DHT22;11220;48.812;9.128;2023-05-16T10:35:05;19.00;88.50
22108;DHT22;11220;48.812;9.128;2023-05-16T10:37:32;19.00;88.50
22108;DHT22;11220;48.812;9.128;2023-05-16T10:39:59;19.00;88.50
22108;DHT22;11220;48.812;9.128;2023-05-16T10:42:25;19.00;88.60
22108;DHT22;11220;48.812;9.128;2023-05-16T10:44:54;19.00;88.60
22108;DHT22;11220;48.812;9.128;2023-05-16T10:47:23;19.60;89.00
22108;DHT22;11220;48.812;9.128;2023-05-16T10:49:48;19.00;88.60
22108;DHT22;11220;48.812;9.128;2023-05-16T10:52:14;19.00;88.70
22108;DHT22;11220;48.812;9.128;2023-05-16T10:54:47;19.00;88.70
22108;DHT22;11220;48.812;9.128;2023-05-16T10:57:18;19.00;88.70
22108;DHT22;11220;48.812;9.128;2023-05-16T10:59:48;18.90;88.60
22108;DHT22;11220;48.812;9.128;2023-05-16T11:02:25;18.90;88.60
22108;DHT22;11220;48.812;9.128;2023-05-16T11:04:53;19.00;88.70
22108;DHT22;11220;48.812;9.128;2023-05-16T11:07:20;18.90;88.60
22108;DHT22;11220;48.812;9.128;2023-05-16T11:10:16;19.30;88.90
22108;DHT22;11220;48.812;9.128;2023-05-16T11:12:43;18.90;88.60
22108;DHT22;11220;48.812;9.128;2023-05-16T11:17:44;18.90;88.60
22108;DHT22;11220;48.812;9.128;2023-05-16T11:20:25;18.90;88.60
22108;DHT22;11220;48.812;9.128;2023-05-16T11:22:51;19.00;88.70
22108;DHT22;11220;48.812;9.128;2023-05-16T11:25:36;18.90;88.60
22108;DHT22;11220;48.812;9.128;2023-05-16T11:28:05;18.90;88.60
22108;DHT22;11220;48.812;9.128;2023-05-16T11:30:32;18.90;88.60
22108;DHT22;11220;48.812;9.128;2023-05-16T11:32:58;18.90;88.60
22108;DHT22;11220;48.812;9.128;2023-05-16T11:35:24;18.90;88.60
22108;DHT22;11220;48.812;9.128;2023-05-16T11:37:50;18.90;88.60
22108;DHT22;11220;48.812;9.128;2023-05-16T11:40:16;18.90;88.50
22108;DHT22;11220;48.812;9.128;2023-05-16T11:42:46;18.90;88.50
22108;DHT22;11220;48.812;9.128;2023-05-16T11:45:17;18.90;88.50
22108;DHT22;11220;48.812;9.128;2023-05-16T11:47:44;19.00;88.50
22108;DHT22;11220;48.812;9.128;2023-05-16T11:52:37;18.90;88.40
22108;DHT22;11220;48.812;9.128;2023-05-16T11:55:07;19.00;88.50
22108;DHT22;11220;48.812;9.128;2023-05-16T11:57:36;19.00;88.40
22108;DHT22;11220;48.812;9.128;2023-05-16T12:00:03;18.90;88.50
22108;DHT22;11220;48.812;9.128;2023-05-16T12:02:32;19.00;88.40
22108;DHT22;11220;48.812;9.128;2023-05-16T12:04:57;19.00;88.40
22108;DHT22;11220;48.812;9.128;2023-05-16T12:07:27;18.90;88.30
22108;DHT22;11220;48.812;9.128;2023-05-16T12:09:52;19.00;88.40
22108;DHT22;11220;48.812;9.128;2023-05-16T12:12:19;18.90;88.30
22108;DHT22;11220;48.812;9.128;2023-05-16T12:14:46;18.90;88.30
22108;DHT22;11220;48.812;9.128;2023-05-16T12:17:11;19.90;89.00
22108;DHT22;11220;48.812;9.128;2023-05-16T12:19:37;18.90;88.50
22108;DHT22;11220;48.812;9.128;2023-05-16T12:22:03;18.90;88.30
22108;DHT22;11220;48.812;9.128;2023-05-16T12:24:30;18.90;88.30
22108;DHT22;11220;48.812;9.128;2023-05-16T12:26:56;19.00;88.40
22108;DHT22;11220;48.812;9.128;2023-05-16T12:29:22;18.90;88.30
22108;DHT22;11220;48.812;9.128;2023-05-16T12:31:52;19.00;88.40
22108;DHT22;11220;48.812;9.128;2023-05-16T12:34:18;19.00;88.40
22108;DHT22;11220;48.812;9.128;2023-05-16T12:36:49;19.40;88.60
22108;DHT22;11220;48.812;9.128;2023-05-16T12:39:16;19.00;88.40
22108;DHT22;11220;48.812;9.128;2023-05-16T12:41:42;19.00;88.40
22108;DHT22;11220;48.812;9.128;2023-05-16T12:44:12;19.20;88.50
22108;DHT22;11220;48.812;9.128;2023-05-16T12:46:46;19.00;88.40
22108;DHT22;11220;48.812;9.128;2023-05-16T12:49:14;19.00;88.40
22108;DHT22;11220;48.812;9.128;2023-05-16T12:51:46;19.00;88.40
22108;DHT22;11220;48.812;9.128;2023-05-16T12:54:12;19.00;88.40
22108;DHT22;11220;48.812;9.128;2023-05-16T12:56:39;19.00;88.40
22108;DHT22;11220;48.812;9.128;2023-05-16T12:59:05;19.00;88.40
22108;DHT22;11220;48.812;9.128;2023-05-16T13:01:32;19.00;88.40
22108;DHT22;11220;48.812;9.128;2023-05-16T13:03:57;19.10;88.50
22108;DHT22;11220;48.812;9.128;2023-05-16T13:06:23;19.10;88.60
22108;DHT22;11220;48.812;9.128;2023-05-16T13:08:49;20.20;89.20
22108;DHT22;11220;48.812;9.128;2023-05-16T13:11:14;19.00;88.50
22108;DHT22;11220;48.812;9.128;2023-05-16T13:13:40;19.10;88.80
22108;DHT22;11220;48.812;9.128;2023-05-16T13:16:06;19.10;88.60
22108;DHT22;11220;48.812;9.128;2023-05-16T13:18:31;19.10;88.60
22108;DHT22;11220;48.812;9.128;2023-05-16T13:20:58;19.60;88.90
22108;DHT22;11220;48.812;9.128;2023-05-16T13:23:24;19.00;88.50
22108;DHT22;11220;48.812;9.128;2023-05-16T13:25:49;19.00;88.50
22108;DHT22;11220;48.812;9.128;2023-05-16T13:28:17;19.00;88.60
22108;DHT22;11220;48.812;9.128;2023-05-16T13:30:42;19.00;88.60
22108;DHT22;11220;48.812;9.128;2023-05-16T13:33:08;19.00;88.70
22108;DHT22;11220;48.812;9.128;2023-05-16T13:35:33;19.60;89.00
22108;DHT22;11220;48.812;9.128;2023-05-16T13:37:59;19.10;88.70
22108;DHT22;11220;48.812;9.128;2023-05-16T13:40:25;21.00;90.10
22108;DHT22;11220;48.812;9.128;2023-05-16T13:42:50;20.00;89.30
22108;DHT22;11220;48.812;9.128;2023-05-16T13:45:16;19.30;89.00
22108;DHT22;11220;48.812;9.128;2023-05-16T13:47:41;19.00;88.80
22108;DHT22;11220;48.812;9.128;2023-05-16T13:50:07;19.00;88.80
22108;DHT22;11220;48.812;9.128;2023-05-16T13:52:35;19.00;88.80
22108;DHT22;11220;48.812;9.128;2023-05-16T13:55:01;19.00;88.80
22108;DHT22;11220;48.812;9.128;2023-05-16T13:57:27;19.00;88.80
22108;DHT22;11220;48.812;9.128;2023-05-16T13:59:53;19.00;88.80
22108;DHT22;11220;48.812;9.128;2023-05-16T14:02:19;19.00;88.80
22108;DHT22;11220;48.812;9.128;2023-05-16T14:04:44;19.00;88.80
22108;DHT22;11220;48.812;9.128;2023-05-16T14:07:10;19.00;88.80
22108;DHT22;11220;48.812;9.128;2023-05-16T14:09:36;19.00;88.80
22108;DHT22;11220;48.812;9.128;2023-05-16T14:12:05;19.00;88.80
22108;DHT22;11220;48.812;9.128;2023-05-16T14:14:32;19.00;88.80
22108;DHT22;11220;48.812;9.128;2023-05-16T14:16:57;19.00;88.80
22108;DHT22;11220;48.812;9.128;2023-05-16T14:19:24;19.00;88.80
22108;DHT22;11220;48.812;9.128;2023-05-16T14:21:49;19.10;88.90
22108;DHT22;11220;48.812;9.128;2023-05-16T14:24:15;19.00;88.80
22108;DHT22;11220;48.812;9.128;2023-05-16T14:26:40;19.00;88.80
22108;DHT22;11220;48.812;9.128;2023-05-16T14:29:06;19.00;88.70
22108;DHT22;11220;48.812;9.128;2023-05-16T14:31:32;19.00;88.80
22108;DHT22;11220;48.812;9.128;2023-05-16T14:33:57;20.10;89.40
22108;DHT22;11220;48.812;9.128;2023-05-16T14:36:24;19.80;89.20
22108;DHT22;11220;48.812;9.128;2023-05-16T14:38:49;19.00;88.70
22108;DHT22;11220;48.812;9.128;2023-05-16T14:41:15;19.00;88.70
22108;DHT22;11220;48.812;9.128;2023-05-16T14:43:41;19.00;88.70
22108;DHT22;11220;48.812;9.128;2023-05-16T14:46:06;19.00;88.70
22108;DHT22;11220;48.812;9.128;2023-05-16T14:48:32;19.90;89.20
22108;DHT22;11220;48.812;9.128;2023-05-16T14:50:58;19.00;88.70
22108;DHT22;11220;48.812;9.128;2023-05-16T14:53:24;19.90;89.10
22108;DHT22;11220;48.812;9.128;2023-05-16T14:55:50;19.90;89.10
22108;DHT22;11220;48.812;9.128;2023-05-16T14:58:15;19.00;88.60
22108;DHT22;11220;48.812;9.128;2023-05-16T15:00:41;19.00;88.60
22108;DHT22;11220;48.812;9.128;2023-05-16T15:03:06;19.10;88.60
22108;DHT22;11220;48.812;9.128;2023-05-16T15:05:32;19.00;88.60
22108;DHT22;11220;48.812;9.128;2023-05-16T15:07:58;19.00;88.60
22108;DHT22;11220;48.812;9.128;2023-05-16T15:10:24;19.50;88.90
22108;DHT22;11220;48.812;9.128;2023-05-16T15:12:50;19.00;88.60
22108;DHT22;11220;48.812;9.128;2023-05-16T15:15:15;19.00;88.60
22108;DHT22;11220;48.812;9.128;2023-05-16T15:17:41;19.00;88.50
22108;DHT22;11220;48.812;9.128;2023-05-16T15:20:08;19.00;88.50
22108;DHT22;11220;48.812;9.128;2023-05-16T15:22:35;19.10;88.60
22108;DHT22;11220;48.812;9.128;2023-05-16T15:25:01;19.10;88.60
22108;DHT22;11220;48.812;9.128;2023-05-16T15:27:27;19.00;88.40
22108;DHT22;11220;48.812;9.128;2023-05-16T15:29:52;19.20;88.60
22108;DHT22;11220;48.812;9.128;2023-05-16T15:32:18;19.10;88.60
22108;DHT22;11220;48.812;9.128;2023-05-16T15:34:43;19.10;88.50
22108;DHT22;11220;48.812;9.128;2023-05-16T15:37:09;19.80;88.90
22108;DHT22;11220;48.812;9.128;2023-05-16T15:39:34;19.10;88.50
22108;DHT22;11220;48.812;9.128;2023-05-16T15:42:00;19.10;88.60
22108;DHT22;11220;48.812;9.128;2023-05-16T15:44:28;19.50;88.80
22108;DHT22;11220;48.812;9.128;2023-05-16T15:46:54;19.10;88.60